sensor_id;sensor_type;location;lat;lon;timestamp;temperature;humidity
73477;DHT22;61713;51.034;13.756;2022-09-09T00:02:21;13.60;99.90
73477;DHT22;61713;51.034;13.756;2022-09-09T00:07:55;13.50;99.90
73477;DHT22;61713;51.034;13.756;2022-09-09T00:10:29;13.40;99.90
73477;DHT22;61713;51.034;13.756;2022-09-09T00:13:05;13.30;99.90
73477;DHT22;61713;51.034;13.756;2022-09-09T00:15:42;13.30;99.90
73477;DHT22;61713;51.034;13.756;2022-09-09T00:21:01;13.30;99.90
73477;DHT22;61713;51.034;13.756;2022-09-09T00:23:35;13.20;99.90
73477;DHT22;61713;51.034;13.756;2022-09-09T00:31:29;13.30;99.90
73477;DHT22;61713;51.034;13.756;2022-09-09T00:34:00;13.20;99.90
73477;DHT22;61713;51.034;13.756;2022-09-09T00:36:29;13.20;99.90
73477;DHT22;61713;51.034;13.756;2022-09-09T00:39:00;13.20;99.90
73477;DHT22;61713;51.034;13.756;2022-09-09T00:52:52;13.00;99.90
73477;DHT22;61713;51.034;13.756;2022-09-09T00:55:32;13.10;99.90
73477;DHT22;61713;51.034;13.756;2022-09-09T00:57:59;13.00;99.90
73477;DHT22;61713;51.034;13.756;2022-09-09T01:00:30;13.00;99.90
73477;DHT22;61713;51.034;13.756;2022-09-09T01:03:32;13.10;99.90
73477;DHT22;61713;51.034;13.756;2022-09-09T01:11:27;13.00;99.90
73477;DHT22;61713;51.034;13.756;2022-09-09T01:14:22;13.00;99.90
73477;DHT22;61713;51.034;13.756;2022-09-09T01:16:53;12.90;99.90
73477;DHT22;61713;51.034;13.756;2022-09-09T01:19:45;12.90;99.90
73477;DHT22;61713;51.034;13.756;2022-09-09T01:27:58;13.00;99.90
73477;DHT22;61713;51.034;13.756;2022-09-09T01:30:24;12.90;99.90
73477;DHT22;61713;51.034;13.756;2022-09-09T01:32:54;12.90;99.90
73477;DHT22;61713;51.034;13.756;2022-09-09T01:38:05;12.90;99.90
73477;DHT22;61713;51.034;13.756;2022-09-09T01:40:31;12.90;99.90
73477;DHT22;61713;51.034;13.756;2022-09-09T01:42:57;12.90;99.90
73477;DHT22;61713;51.034;13.756;2022-09-09T01:45:23;12.90;99.90
73477;DHT22;61713;51.034;13.756;2022-09-09T01:47:51;13.10;99.90
73477;DHT22;61713;51.034;13.756;2022-09-09T01:50:17;13.00;99.90
73477;DHT22;61713;51.034;13.756;2022-09-09T01:52:46;12.90;99.90
73477;DHT22;61713;51.034;13.756;2022-09-09T01:55:12;12.90;99.90
73477;DHT22;61713;51.034;13.756;2022-09-09T02:00:43;12.80;99.90
73477;DHT22;61713;51.034;13.756;2022-09-09T02:03:27;12.90;99.90
73477;DHT22;61713;51.034;13.756;2022-09-09T02:06:41;12.80;99.90
73477;DHT22;61713;51.034;13.756;2022-09-09T02:08:54;12.70;99.90
73477;DHT22;61713;51.034;13.756;2022-09-09T02:11:23;12.70;99.90
73477;DHT22;61713;51.034;13.756;2022-09-09T02:13:51;12.80;99.90
73477;DHT22;61713;51.034;13.756;2022-09-09T02:19:20;12.80;99.90
73477;DHT22;61713;51.034;13.756;2022-09-09T02:21:52;12.90;99.90
73477;DHT22;61713;51.034;13.756;2022-09-09T02:24:19;12.80;99.90
73477;DHT22;61713;51.034;13.756;2022-09-09T02:26:47;12.80;99.90
73477;DHT22;61713;51.034;13.756;2022-09-09T02:29:30;12.80;99.90
73477;DHT22;61713;51.034;13.756;2022-09-09T02:32:01;12.80;99.90
73477;DHT22;61713;51.034;13.756;2022-09-09T02:34:31;12.80;99.90
73477;DHT22;61713;51.034;13.756;2022-09-09T02:37:00;12.90;99.90
73477;DHT22;61713;51.034;13.756;2022-09-09T02:39:27;12.80;99.90
73477;DHT22;61713;51.034;13.756;2022-09-09T02:41:52;12.80;99.90
73477;DHT22;61713;51.034;13.756;2022-09-09T02:44:18;12.80;99.90
73477;DHT22;61713;51.034;13.756;2022-09-09T02:49:57;12.70;99.90
73477;DHT22;61713;51.034;13.756;2022-09-09T02:55:39;12.60;99.90
73477;DHT22;61713;51.034;13.756;2022-09-09T02:58:07;12.80;99.90
73477;DHT22;61713;51.034;13.756;2022-09-09T03:00:33;12.90;99.90
73477;DHT22;61713;51.034;13.756;2022-09-09T03:03:02;12.90;99.90
73477;DHT22;61713;51.034;13.756;2022-09-09T03:05:28;12.90;99.90
73477;DHT22;61713;51.034;13.756;2022-09-09T03:07:54;12.90;99.90
73477;DHT22;61713;51.034;13.756;2022-09-09T03:10:20;12.80;99.90
73477;DHT22;61713;51.034;13.756;2022-09-09T03:12:45;12.80;99.90
73477;DHT22;61713;51.034;13.756;2022-09-09T03:15:11;12.90;99.90
73477;DHT22;61713;51.034;13.756;2022-09-09T03:17:36;12.90;99.90
73477;DHT22;61713;51.034;13.756;2022-09-09T03:20:04;12.90;99.90
73477;DHT22;61713;51.034;13.756;2022-09-09T03:22:30;12.90;99.90
73477;DHT22;61713;51.034;13.756;2022-09-09T03:24:55;13.00;99.90
73477;DHT22;61713;51.034;13.756;2022-09-09T03:27:21;12.90;99.90
73477;DHT22;61713;51.034;13.756;2022-09-09T03:29:46;12.90;99.90
73477;DHT22;61713;51.034;13.756;2022-09-09T03:32:12;13.00;99.90
73477;DHT22;61713;51.034;13.756;2022-09-09T03:34:38;13.10;99.90
73477;DHT22;61713;51.034;13.756;2022-09-09T03:37:06;13.00;99.90
73477;DHT22;61713;51.034;13.756;2022-09-09T03:39:32;13.00;99.90
73477;DHT22;61713;51.034;13.756;2022-09-09T03:41:57;13.00;99.90
73477;DHT22;61713;51.034;13.756;2022-09-09T03:44:23;13.10;99.90
73477;DHT22;61713;51.034;13.756;2022-09-09T03:46:48;13.00;99.90
73477;DHT22;61713;51.034;13.756;2022-09-09T03:49:14;13.00;99.90
73477;DHT22;61713;51.034;13.756;2022-09-09T03:51:40;12.90;99.90
73477;DHT22;61713;51.034;13.756;2022-09-09T03:54:07;13.10;99.90
73477;DHT22;61713;51.034;13.756;2022-09-09T03:56:34;13.00;99.90
73477;DHT22;61713;51.034;13.756;2022-09-09T03:58:59;13.00;99.90
73477;DHT22;61713;51.034;13.756;2022-09-09T04:01:25;12.90;99.90
73477;DHT22;61713;51.034;13.756;2022-09-09T04:03:51;13.00;99.90
73477;DHT22;61713;51.034;13.756;2022-09-09T04:06:17;13.00;99.90
73477;DHT22;61713;51.034;13.756;2022-09-09T04:08:43;13.00;99.90
73477;DHT22;61713;51.034;13.756;2022-09-09T04:11:09;13.00;99.90
73477;DHT22;61713;51.034;13.756;2022-09-09T04:13:36;13.00;99.90
73477;DHT22;61713;51.034;13.756;2022-09-09T04:16:06;13.10;99.90
73477;DHT22;61713;51.034;13.756;2022-09-09T04:18:32;13.10;99.90
73477;DHT22;61713;51.034;13.756;2022-09-09T04:20:57;13.10;99.90
73477;DHT22;61713;51.034;13.756;2022-09-09T04:23:25;13.10;99.90
73477;DHT22;61713;51.034;13.756;2022-09-09T04:25:54;13.10;99.90
73477;DHT22;61713;51.034;13.756;2022-09-09T04:28:22;13.20;99.90
73477;DHT22;61713;51.034;13.756;2022-09-09T04:30:47;13.20;99.90
73477;DHT22;61713;51.034;13.756;2022-09-09T04:33:14;13.20;99.90
73477;DHT22;61713;51.034;13.756;2022-09-09T04:35:44;13.30;99.90
73477;DHT22;61713;51.034;13.756;2022-09-09T04:38:10;13.20;99.90
73477;DHT22;61713;51.034;13.756;2022-09-09T04:40:35;13.30;99.90
73477;DHT22;61713;51.034;13.756;2022-09-09T04:43:02;13.30;99.90
73477;DHT22;61713;51.034;13.756;2022-09-09T04:45:30;13.30;99.90
73477;DHT22;61713;51.034;13.756;2022-09-09T04:47:56;13.20;99.90
73477;DHT22;61713;51.034;13.756;2022-09-09T04:50:22;13.30;99.90
73477;DHT22;61713;51.034;13.756;2022-09-09T04:52:47;13.30;99.90
73477;DHT22;61713;51.034;13.756;2022-09-09T04:55:13;13.40;99.90
73477;DHT22;61713;51.034;13.756;2022-09-09T04:57:40;13.40;99.90
73477;DHT22;61713;51.034;13.756;2022-09-09T05:00:06;13.40;99.90
73477;DHT22;61713;51.034;13.756;2022-09-09T05:02:32;13.40;99.90
73477;DHT22;61713;51.034;13.756;2022-09-09T05:04:58;13.50;99.90
73477;DHT22;61713;51.034;13.756;2022-09-09T05:07:24;13.60;99.90
73477;DHT22;61713;51.034;13.756;2022-09-09T05:09:51;13.70;99.90
73477;DHT22;61713;51.034;13.756;2022-09-09T05:12:17;14.20;99.90
73477;DHT22;61713;51.034;13.756;2022-09-09T05:14:43;14.20;99.90
73477;DHT22;61713;51.034;13.756;2022-09-09T05:17:09;14.30;99.90
73477;DHT22;61713;51.034;13.756;2022-09-09T05:19:34;14.10;99.90
73477;DHT22;61713;51.034;13.756;2022-09-09T05:21:59;14.20;99.90
73477;DHT22;61713;51.034;13.756;2022-09-09T05:24:26;14.90;99.90
73477;DHT22;61713;51.034;13.756;2022-09-09T05:26:52;15.00;99.90
73477;DHT22;61713;51.034;13.756;2022-09-09T05:29:17;15.20;99.90
73477;DHT22;61713;51.034;13.756;2022-09-09T05:31:45;15.30;99.90
73477;DHT22;61713;51.034;13.756;2022-09-09T05:34:11;15.30;99.90
73477;DHT22;61713;51.034;13.756;2022-09-09T05:36:37;15.10;99.90
73477;DHT22;61713;51.034;13.756;2022-09-09T05:39:03;15.30;99.90
73477;DHT22;61713;51.034;13.756;2022-09-09T05:41:29;15.20;99.90
73477;DHT22;61713;51.034;13.756;2022-09-09T05:43:54;15.50;99.90
73477;DHT22;61713;51.034;13.756;2022-09-09T05:46:24;15.60;99.90
73477;DHT22;61713;51.034;13.756;2022-09-09T05:48:51;15.90;99.90
73477;DHT22;61713;51.034;13.756;2022-09-09T05:51:22;16.00;99.90
73477;DHT22;61713;51.034;13.756;2022-09-09T05:53:49;16.20;99.90
73477;DHT22;61713;51.034;13.756;2022-09-09T05:56:18;16.20;99.90
73477;DHT22;61713;51.034;13.756;2022-09-09T05:58:45;16.00;99.90
73477;DHT22;61713;51.034;13.756;2022-09-09T06:01:18;16.20;99.90
73477;DHT22;61713;51.034;13.756;2022-09-09T06:03:45;16.30;99.90
73477;DHT22;61713;51.034;13.756;2022-09-09T06:06:14;16.60;99.90
73477;DHT22;61713;51.034;13.756;2022-09-09T06:08:42;16.60;99.90
73477;DHT22;61713;51.034;13.756;2022-09-09T06:11:15;16.50;99.90
73477;DHT22;61713;51.034;13.756;2022-09-09T06:13:41;16.40;99.90
73477;DHT22;61713;51.034;13.756;2022-09-09T06:16:11;16.40;99.90
73477;DHT22;61713;51.034;13.756;2022-09-09T06:18:38;16.40;99.90
73477;DHT22;61713;51.034;13.756;2022-09-09T06:21:06;16.50;99.90
73477;DHT22;61713;51.034;13.756;2022-09-09T06:23:32;16.70;99.90
73477;DHT22;61713;51.034;13.756;2022-09-09T06:26:12;16.80;99.90
73477;DHT22;61713;51.034;13.756;2022-09-09T06:28:38;16.80;99.90
73477;DHT22;61713;51.034;13.756;2022-09-09T06:31:06;17.00;99.90
73477;DHT22;61713;51.034;13.756;2022-09-09T06:33:34;17.00;99.90
73477;DHT22;61713;51.034;13.756;2022-09-09T06:36:00;17.00;99.90
73477;DHT22;61713;51.034;13.756;2022-09-09T06:38:26;17.00;99.90
73477;DHT22;61713;51.034;13.756;2022-09-09T06:40:58;17.00;99.90
73477;DHT22;61713;51.034;13.756;2022-09-09T06:43:26;17.00;99.90
73477;DHT22;61713;51.034;13.756;2022-09-09T06:46:00;16.90;99.90
73477;DHT22;61713;51.034;13.756;2022-09-09T06:48:27;17.00;99.90
73477;DHT22;61713;51.034;13.756;2022-09-09T06:53:37;17.50;99.90
73477;DHT22;61713;51.034;13.756;2022-09-09T06:56:21;17.60;99.90
73477;DHT22;61713;51.034;13.756;2022-09-09T06:58:49;17.80;99.90
73477;DHT22;61713;51.034;13.756;2022-09-09T07:01:19;17.80;99.90
73477;DHT22;61713;51.034;13.756;2022-09-09T07:03:49;17.70;99.90
73477;DHT22;61713;51.034;13.756;2022-09-09T07:06:21;17.80;99.90
73477;DHT22;61713;51.034;13.756;2022-09-09T07:08:54;18.00;99.90
73477;DHT22;61713;51.034;13.756;2022-09-09T07:11:21;18.00;99.90
73477;DHT22;61713;51.034;13.756;2022-09-09T07:13:47;18.10;99.90
73477;DHT22;61713;51.034;13.756;2022-09-09T07:16:16;18.10;99.90
73477;DHT22;61713;51.034;13.756;2022-09-09T07:18:42;17.80;99.90
73477;DHT22;61713;51.034;13.756;2022-09-09T07:21:10;17.80;99.90
73477;DHT22;61713;51.034;13.756;2022-09-09T07:23:35;17.90;99.90
73477;DHT22;61713;51.034;13.756;2022-09-09T07:26:02;17.70;99.90
73477;DHT22;61713;51.034;13.756;2022-09-09T07:28:28;17.80;99.90
73477;DHT22;61713;51.034;13.756;2022-09-09T07:30:57;18.10;99.90
73477;DHT22;61713;51.034;13.756;2022-09-09T07:33:24;18.10;99.90
73477;DHT22;61713;51.034;13.756;2022-09-09T07:35:51;18.40;99.90
73477;DHT22;61713;51.034;13.756;2022-09-09T07:38:17;18.40;99.90
73477;DHT22;61713;51.034;13.756;2022-09-09T07:40:42;18.40;99.90
73477;DHT22;61713;51.034;13.756;2022-09-09T07:43:09;18.40;99.90
73477;DHT22;61713;51.034;13.756;2022-09-09T07:45:35;18.50;99.90
73477;DHT22;61713;51.034;13.756;2022-09-09T07:48:01;18.60;99.90
73477;DHT22;61713;51.034;13.756;2022-09-09T07:50:26;18.90;99.90
73477;DHT22;61713;51.034;13.756;2022-09-09T07:52:52;19.10;99.90
73477;DHT22;61713;51.034;13.756;2022-09-09T07:55:19;19.20;99.90
73477;DHT22;61713;51.034;13.756;2022-09-09T07:57:44;19.30;99.90
73477;DHT22;61713;51.034;13.756;2022-09-09T08:00:11;19.70;99.80
73477;DHT22;61713;51.034;13.756;2022-09-09T08:02:36;20.10;98.90
73477;DHT22;61713;51.034;13.756;2022-09-09T08:05:02;20.20;98.50
73477;DHT22;61713;51.034;13.756;2022-09-09T08:07:28;20.40;97.40
73477;DHT22;61713;51.034;13.756;2022-09-09T08:09:54;20.70;97.50
73477;DHT22;61713;51.034;13.756;2022-09-09T08:12:21;21.10;96.50
73477;DHT22;61713;51.034;13.756;2022-09-09T08:14:46;21.30;95.50
73477;DHT22;61713;51.034;13.756;2022-09-09T08:17:12;21.10;95.50
73477;DHT22;61713;51.034;13.756;2022-09-09T08:19:37;21.10;96.30
73477;DHT22;61713;51.034;13.756;2022-09-09T08:22:03;20.90;96.70
73477;DHT22;61713;51.034;13.756;2022-09-09T08:24:29;21.10;96.90
73477;DHT22;61713;51.034;13.756;2022-09-09T08:26:54;21.30;97.00
73477;DHT22;61713;51.034;13.756;2022-09-09T08:29:22;21.40;96.30
73477;DHT22;61713;51.034;13.756;2022-09-09T08:31:50;21.60;97.10
73477;DHT22;61713;51.034;13.756;2022-09-09T08:34:17;21.60;97.10
73477;DHT22;61713;51.034;13.756;2022-09-09T08:36:46;22.10;96.20
73477;DHT22;61713;51.034;13.756;2022-09-09T08:39:15;22.10;95.90
73477;DHT22;61713;51.034;13.756;2022-09-09T08:50:11;22.70;94.10
73477;DHT22;61713;51.034;13.756;2022-09-09T08:52:53;22.90;93.80
73477;DHT22;61713;51.034;13.756;2022-09-09T08:55:51;23.20;93.10
73477;DHT22;61713;51.034;13.756;2022-09-09T08:59:07;23.70;93.00
73477;DHT22;61713;51.034;13.756;2022-09-09T09:01:55;24.00;91.90
73477;DHT22;61713;51.034;13.756;2022-09-09T09:07:33;23.70;93.50
73477;DHT22;61713;51.034;13.756;2022-09-09T09:10:16;23.50;93.60
73477;DHT22;61713;51.034;13.756;2022-09-09T09:12:45;23.20;96.40
73477;DHT22;61713;51.034;13.756;2022-09-09T09:15:23;23.20;98.10
73477;DHT22;61713;51.034;13.756;2022-09-09T09:17:49;22.90;96.80
73477;DHT22;61713;51.034;13.756;2022-09-09T09:20:18;22.50;96.40
73477;DHT22;61713;51.034;13.756;2022-09-09T09:22:52;22.10;97.00
73477;DHT22;61713;51.034;13.756;2022-09-09T09:25:21;21.90;98.50
73477;DHT22;61713;51.034;13.756;2022-09-09T09:27:59;21.40;97.30
73477;DHT22;61713;51.034;13.756;2022-09-09T09:30:56;20.90;98.30
73477;DHT22;61713;51.034;13.756;2022-09-09T09:33:31;20.60;99.90
73477;DHT22;61713;51.034;13.756;2022-09-09T09:35:59;20.50;97.90
73477;DHT22;61713;51.034;13.756;2022-09-09T09:38:27;20.90;97.70
73477;DHT22;61713;51.034;13.756;2022-09-09T09:40:58;21.10;97.30
73477;DHT22;61713;51.034;13.756;2022-09-09T09:43:32;21.10;97.60
73477;DHT22;61713;51.034;13.756;2022-09-09T09:45:58;21.20;97.00
73477;DHT22;61713;51.034;13.756;2022-09-09T09:48:24;21.70;97.00
73477;DHT22;61713;51.034;13.756;2022-09-09T09:51:00;22.00;97.40
73477;DHT22;61713;51.034;13.756;2022-09-09T09:53:30;22.30;97.10
73477;DHT22;61713;51.034;13.756;2022-09-09T09:56:02;22.40;96.80
73477;DHT22;61713;51.034;13.756;2022-09-09T09:58:55;22.50;96.00
73477;DHT22;61713;51.034;13.756;2022-09-09T10:01:28;22.70;96.10
73477;DHT22;61713;51.034;13.756;2022-09-09T10:03:58;22.50;96.50
73477;DHT22;61713;51.034;13.756;2022-09-09T10:06:34;22.00;97.30
73477;DHT22;61713;51.034;13.756;2022-09-09T10:09:02;22.30;97.30
73477;DHT22;61713;51.034;13.756;2022-09-09T10:11:38;22.00;97.40
73477;DHT22;61713;51.034;13.756;2022-09-09T10:14:14;22.40;96.90
73477;DHT22;61713;51.034;13.756;2022-09-09T10:19:32;22.40;97.40
73477;DHT22;61713;51.034;13.756;2022-09-09T10:32:45;22.20;96.30
73477;DHT22;61713;51.034;13.756;2022-09-09T10:40:43;22.00;97.10
73477;DHT22;61713;51.034;13.756;2022-09-09T10:49:14;22.30;96.50
73477;DHT22;61713;51.034;13.756;2022-09-09T10:57:38;22.50;95.30
73477;DHT22;61713;51.034;13.756;2022-09-09T11:00:10;22.70;94.40
73477;DHT22;61713;51.034;13.756;2022-09-09T11:02:41;22.80;94.60
73477;DHT22;61713;51.034;13.756;2022-09-09T11:05:16;22.90;95.30
73477;DHT22;61713;51.034;13.756;2022-09-09T11:07:57;23.00;94.70
73477;DHT22;61713;51.034;13.756;2022-09-09T11:10:34;22.90;93.50
73477;DHT22;61713;51.034;13.756;2022-09-09T11:13:10;23.10;93.90
73477;DHT22;61713;51.034;13.756;2022-09-09T11:15:44;23.30;93.50
73477;DHT22;61713;51.034;13.756;2022-09-09T11:18:16;23.50;93.00
73477;DHT22;61713;51.034;13.756;2022-09-09T11:20:45;23.40;92.60
73477;DHT22;61713;51.034;13.756;2022-09-09T11:23:17;23.40;93.30
73477;DHT22;61713;51.034;13.756;2022-09-09T11:25:55;23.20;93.80
73477;DHT22;61713;51.034;13.756;2022-09-09T11:28:32;23.10;94.30
73477;DHT22;61713;51.034;13.756;2022-09-09T11:31:32;23.20;94.60
73477;DHT22;61713;51.034;13.756;2022-09-09T11:37:08;23.50;95.00
73477;DHT22;61713;51.034;13.756;2022-09-09T11:42:25;24.10;93.60
73477;DHT22;61713;51.034;13.756;2022-09-09T11:44:51;24.20;92.70
73477;DHT22;61713;51.034;13.756;2022-09-09T11:47:24;24.00;92.60
73477;DHT22;61713;51.034;13.756;2022-09-09T11:49:52;24.00;92.50
73477;DHT22;61713;51.034;13.756;2022-09-09T11:52:39;23.80;92.70
73477;DHT22;61713;51.034;13.756;2022-09-09T11:55:24;24.00;92.20
73477;DHT22;61713;51.034;13.756;2022-09-09T11:58:16;23.60;92.80
73477;DHT22;61713;51.034;13.756;2022-09-09T12:00:46;23.80;93.20
73477;DHT22;61713;51.034;13.756;2022-09-09T12:03:35;24.00;92.70
73477;DHT22;61713;51.034;13.756;2022-09-09T12:06:29;23.80;93.10
73477;DHT22;61713;51.034;13.756;2022-09-09T12:09:09;24.20;93.70
73477;DHT22;61713;51.034;13.756;2022-09-09T12:11:36;24.20;94.30
73477;DHT22;61713;51.034;13.756;2022-09-09T12:14:02;24.20;93.10
73477;DHT22;61713;51.034;13.756;2022-09-09T12:16:37;24.70;92.50
73477;DHT22;61713;51.034;13.756;2022-09-09T12:19:14;24.70;91.80
73477;DHT22;61713;51.034;13.756;2022-09-09T12:24:36;25.30;91.10
73477;DHT22;61713;51.034;13.756;2022-09-09T12:27:12;25.50;90.30
73477;DHT22;61713;51.034;13.756;2022-09-09T12:29:49;25.60;90.00
73477;DHT22;61713;51.034;13.756;2022-09-09T12:32:23;25.10;86.60
73477;DHT22;61713;51.034;13.756;2022-09-09T12:34:54;25.00;88.40
73477;DHT22;61713;51.034;13.756;2022-09-09T12:40:06;24.70;90.30
73477;DHT22;61713;51.034;13.756;2022-09-09T12:42:32;24.90;89.30
73477;DHT22;61713;51.034;13.756;2022-09-09T12:45:03;25.10;89.50
73477;DHT22;61713;51.034;13.756;2022-09-09T12:47:44;25.00;88.60
73477;DHT22;61713;51.034;13.756;2022-09-09T12:50:22;25.20;87.80
73477;DHT22;61713;51.034;13.756;2022-09-09T12:52:52;25.20;86.70
73477;DHT22;61713;51.034;13.756;2022-09-09T12:55:23;25.40;85.70
73477;DHT22;61713;51.034;13.756;2022-09-09T12:57:50;25.70;85.90
73477;DHT22;61713;51.034;13.756;2022-09-09T13:00:21;26.30;83.60
73477;DHT22;61713;51.034;13.756;2022-09-09T13:02:53;28.00;78.30
73477;DHT22;61713;51.034;13.756;2022-09-09T13:05:22;28.50;73.40
73477;DHT22;61713;51.034;13.756;2022-09-09T13:07:48;28.20;76.30
73477;DHT22;61713;51.034;13.756;2022-09-09T13:10:19;27.60;76.20
73477;DHT22;61713;51.034;13.756;2022-09-09T13:12:46;28.30;74.70
73477;DHT22;61713;51.034;13.756;2022-09-09T13:15:19;31.10;67.20
73477;DHT22;61713;51.034;13.756;2022-09-09T13:17:50;32.60;61.30
73477;DHT22;61713;51.034;13.756;2022-09-09T13:20:18;35.20;54.60
73477;DHT22;61713;51.034;13.756;2022-09-09T13:22:44;35.90;54.60
73477;DHT22;61713;51.034;13.756;2022-09-09T13:27:38;37.80;47.50
73477;DHT22;61713;51.034;13.756;2022-09-09T13:30:27;39.70;44.80
73477;DHT22;61713;51.034;13.756;2022-09-09T13:35:36;36.70;48.40
73477;DHT22;61713;51.034;13.756;2022-09-09T13:38:14;35.80;49.40
73477;DHT22;61713;51.034;13.756;2022-09-09T13:40:39;34.40;49.20
73477;DHT22;61713;51.034;13.756;2022-09-09T13:43:05;32.70;51.10
73477;DHT22;61713;51.034;13.756;2022-09-09T13:45:40;31.10;55.00
73477;DHT22;61713;51.034;13.756;2022-09-09T13:48:10;30.30;58.80
73477;DHT22;61713;51.034;13.756;2022-09-09T13:50:35;29.40;60.00
73477;DHT22;61713;51.034;13.756;2022-09-09T13:53:01;28.70;63.00
73477;DHT22;61713;51.034;13.756;2022-09-09T13:55:28;28.10;63.90
73477;DHT22;61713;51.034;13.756;2022-09-09T13:58:01;27.50;65.00
73477;DHT22;61713;51.034;13.756;2022-09-09T14:00:34;27.20;64.60
73477;DHT22;61713;51.034;13.756;2022-09-09T14:03:00;26.70;66.20
73477;DHT22;61713;51.034;13.756;2022-09-09T14:05:31;26.40;65.80
73477;DHT22;61713;51.034;13.756;2022-09-09T14:07:57;26.00;69.00
73477;DHT22;61713;51.034;13.756;2022-09-09T14:10:23;25.90;70.60
73477;DHT22;61713;51.034;13.756;2022-09-09T14:12:48;25.80;70.30
73477;DHT22;61713;51.034;13.756;2022-09-09T14:15:14;25.80;70.60
73477;DHT22;61713;51.034;13.756;2022-09-09T14:17:40;25.90;70.70
73477;DHT22;61713;51.034;13.756;2022-09-09T14:20:06;25.90;73.40
73477;DHT22;61713;51.034;13.756;2022-09-09T14:22:35;25.60;69.50
73477;DHT22;61713;51.034;13.756;2022-09-09T14:25:01;25.80;69.30
73477;DHT22;61713;51.034;13.756;2022-09-09T14:27:26;25.80;70.00
73477;DHT22;61713;51.034;13.756;2022-09-09T14:29:52;26.00;65.90
73477;DHT22;61713;51.034;13.756;2022-09-09T14:32:18;26.10;66.30
73477;DHT22;61713;51.034;13.756;2022-09-09T14:34:43;26.20;65.40
73477;DHT22;61713;51.034;13.756;2022-09-09T14:37:09;26.20;62.90
73477;DHT22;61713;51.034;13.756;2022-09-09T14:39:34;26.60;62.70
73477;DHT22;61713;51.034;13.756;2022-09-09T14:42:00;26.30;64.30
73477;DHT22;61713;51.034;13.756;2022-09-09T14:44:27;26.40;64.60
73477;DHT22;61713;51.034;13.756;2022-09-09T14:46:53;26.20;62.20
73477;DHT22;61713;51.034;13.756;2022-09-09T14:49:19;26.30;63.70
73477;DHT22;61713;51.034;13.756;2022-09-09T14:51:45;26.80;61.10
73477;DHT22;61713;51.034;13.756;2022-09-09T14:54:10;26.80;61.40
73477;DHT22;61713;51.034;13.756;2022-09-09T14:56:36;27.10;61.30
73477;DHT22;61713;51.034;13.756;2022-09-09T14:59:02;26.50;62.80
73477;DHT22;61713;51.034;13.756;2022-09-09T15:01:29;26.50;62.50
73477;DHT22;61713;51.034;13.756;2022-09-09T15:03:57;26.40;64.30
73477;DHT22;61713;51.034;13.756;2022-09-09T15:06:24;26.80;63.00
73477;DHT22;61713;51.034;13.756;2022-09-09T15:08:52;26.40;64.30
73477;DHT22;61713;51.034;13.756;2022-09-09T15:11:18;26.20;66.00
73477;DHT22;61713;51.034;13.756;2022-09-09T15:13:44;26.40;67.30
73477;DHT22;61713;51.034;13.756;2022-09-09T15:16:13;26.20;65.50
73477;DHT22;61713;51.034;13.756;2022-09-09T15:18:39;26.30;64.90
73477;DHT22;61713;51.034;13.756;2022-09-09T15:21:16;26.20;66.30
73477;DHT22;61713;51.034;13.756;2022-09-09T15:23:44;26.20;65.80
73477;DHT22;61713;51.034;13.756;2022-09-09T15:26:10;26.10;68.10
73477;DHT22;61713;51.034;13.756;2022-09-09T15:28:37;27.00;67.10
73477;DHT22;61713;51.034;13.756;2022-09-09T15:31:12;29.20;61.10
73477;DHT22;61713;51.034;13.756;2022-09-09T15:33:40;29.30;62.00
73477;DHT22;61713;51.034;13.756;2022-09-09T15:36:23;28.20;60.60
73477;DHT22;61713;51.034;13.756;2022-09-09T15:38:49;27.10;64.50
73477;DHT22;61713;51.034;13.756;2022-09-09T15:41:16;26.70;66.30
73477;DHT22;61713;51.034;13.756;2022-09-09T15:43:46;26.40;67.10
73477;DHT22;61713;51.034;13.756;2022-09-09T15:46:27;26.10;70.10
73477;DHT22;61713;51.034;13.756;2022-09-09T15:48:55;25.90;70.60
73477;DHT22;61713;51.034;13.756;2022-09-09T15:51:21;26.00;70.70
73477;DHT22;61713;51.034;13.756;2022-09-09T15:53:47;25.90;71.10
73477;DHT22;61713;51.034;13.756;2022-09-09T15:56:12;26.00;71.40
73477;DHT22;61713;51.034;13.756;2022-09-09T15:58:38;26.00;70.70
73477;DHT22;61713;51.034;13.756;2022-09-09T16:01:05;25.80;71.20
73477;DHT22;61713;51.034;13.756;2022-09-09T16:03:40;25.20;72.60
73477;DHT22;61713;51.034;13.756;2022-09-09T16:06:08;25.00;74.20
73477;DHT22;61713;51.034;13.756;2022-09-09T16:08:35;24.50;75.90
73477;DHT22;61713;51.034;13.756;2022-09-09T16:11:16;24.00;75.60
73477;DHT22;61713;51.034;13.756;2022-09-09T16:13:43;23.90;75.20
73477;DHT22;61713;51.034;13.756;2022-09-09T16:16:13;23.70;76.20
73477;DHT22;61713;51.034;13.756;2022-09-09T16:18:44;23.60;76.40
73477;DHT22;61713;51.034;13.756;2022-09-09T16:21:16;23.30;78.30
73477;DHT22;61713;51.034;13.756;2022-09-09T16:23:42;23.00;78.80
73477;DHT22;61713;51.034;13.756;2022-09-09T16:26:11;22.90;79.10
73477;DHT22;61713;51.034;13.756;2022-09-09T16:28:37;22.90;79.40
73477;DHT22;61713;51.034;13.756;2022-09-09T16:31:07;23.20;79.10
73477;DHT22;61713;51.034;13.756;2022-09-09T16:33:33;24.20;74.30
73477;DHT22;61713;51.034;13.756;2022-09-09T16:36:05;24.90;72.60
73477;DHT22;61713;51.034;13.756;2022-09-09T16:38:31;26.50;67.10
73477;DHT22;61713;51.034;13.756;2022-09-09T16:41:00;27.60;63.80
73477;DHT22;61713;51.034;13.756;2022-09-09T16:43:26;27.80;61.80
73477;DHT22;61713;51.034;13.756;2022-09-09T16:45:51;27.90;60.00
73477;DHT22;61713;51.034;13.756;2022-09-09T16:48:17;28.10;59.70
73477;DHT22;61713;51.034;13.756;2022-09-09T16:50:42;28.70;58.20
73477;DHT22;61713;51.034;13.756;2022-09-09T16:53:08;29.50;57.00
73477;DHT22;61713;51.034;13.756;2022-09-09T16:55:38;30.00;56.40
73477;DHT22;61713;51.034;13.756;2022-09-09T16:58:04;28.70;58.60
73477;DHT22;61713;51.034;13.756;2022-09-09T17:00:30;27.20;61.40
73477;DHT22;61713;51.034;13.756;2022-09-09T17:02:55;26.30;65.40
73477;DHT22;61713;51.034;13.756;2022-09-09T17:05:21;25.70;67.60
73477;DHT22;61713;51.034;13.756;2022-09-09T17:07:46;25.20;69.90
73477;DHT22;61713;51.034;13.756;2022-09-09T17:10:12;24.60;72.60
73477;DHT22;61713;51.034;13.756;2022-09-09T17:12:37;23.90;74.90
73477;DHT22;61713;51.034;13.756;2022-09-09T17:15:03;23.50;76.80
73477;DHT22;61713;51.034;13.756;2022-09-09T17:17:29;23.00;78.90
73477;DHT22;61713;51.034;13.756;2022-09-09T17:19:54;22.60;81.30
73477;DHT22;61713;51.034;13.756;2022-09-09T17:22:20;22.00;83.90